Latest Coastal Weather Observations for Milingimbi

IDD60701

Issued at 8:31 am CST Monday 20 April 2015 (issued every 10 minutes, with the page automatically refreshed every 10 minutes)

About coastal observations | Map of coastal stations | Coastal observations for NT | Marine services | Other Formats
Station Details ID: 014404 Name: MILINGIMBI AIRPORT Lat: -12.09 Lon: 134.89 Height: 15.0 m
Data from the previous 72 hours. | See also: Recent months at Milingimbi
Date/Time
CST
Temp

°C
Wind Pressure Rain
since 9am
mm
Weather Cloud Vis
km
Sea
Height
m
Swell
Dir
 
Speed
knots
Gust
knots
hPa Trend Height
m
Period
s
Dir
20/08:30am 27.0 SE 9 13 1012.4 - 1.4 - - - - - - -
20/08:00am 27.0 SE 8 11 1012.4 - 0.8 - - - - - - -
20/07:30am 26.2 SE 7 9 1012.1 - 0.8 - - - - - - -
20/07:00am 25.9 SE 7 11 1011.8 - 0.8 - - - - - - -
20/06:30am 25.7 SSE 8 11 1011.4 - 0.8 - - - - - - -
20/06:00am 25.6 SSE 7 8 1011.0 - 0.8 - - - - - - -
20/05:30am 25.8 SSE 8 11 1010.9 - 0.8 - - - - - - -
20/05:00am 25.8 SSE 7 11 1010.8 - 0.8 - - - - - - -
20/04:30am 25.7 SSE 6 8 1010.7 - 0.8 - - - - - - -
20/04:00am 25.8 SSE 7 9 1010.6 - 0.8 - - - - - - -
20/03:30am 25.9 SSE 5 8 1010.6 - 0.8 - - - - - - -
20/03:00am 25.9 SE 6 8 1010.7 - 0.8 - - - - - - -
20/02:30am 26.0 SE 7 9 1011.1 - 0.8 - - - - - - -
20/02:00am 26.2 SE 7 9 1011.6 - 0.8 - - - - - - -
20/01:30am 26.3 SE 8 11 1011.9 - 0.8 - - - - - - -
20/01:00am 26.5 SE 8 11 1012.0 - 0.8 - - - - - - -
20/12:30am 26.4 SSE 7 11 1012.1 - 0.8 - - - - - - -
20/12:00am 26.5 SSE 6 7 1012.2 - 0.8 - - - - - - -
 
Date/Time
CST
Temp

°C
Wind Pressure Rain
since 9am
mm
Weather Cloud Vis
km
Sea
Height
m
Swell
Dir
 
Speed
knots
Gust
knots
hPa Trend Height
m
Period
s
Dir
19/11:30pm 26.8 SSE 8 11 1012.6 - 0.8 - - - - - - -
19/11:00pm 27.0 SSE 8 10 1012.5 - 0.8 - - - - - - -
19/10:30pm 27.2 SE 10 14 1012.4 - 0.8 - - - - - - -
19/10:00pm 27.4 SE 10 14 1012.3 - 0.8 - - - - - - -
19/09:30pm 27.9 SE 11 18 1012.1 - 0.8 - - - - - - -
19/09:00pm 28.4 SE 12 17 1011.8 - 0.8 - - - - - - -
19/08:30pm 28.8 ESE 15 21 1011.3 - 0.8 - - - - - - -
19/08:00pm 28.8 ESE 10 17 1010.7 - 0.8 - - - - - - -
19/07:30pm 29.1 ESE 12 15 1010.3 - 0.8 - - - - - - -
19/07:00pm 29.5 ESE 9 14 1009.9 - 0.8 - - - - - - -
19/06:30pm 29.8 ESE 9 13 1009.7 - 0.8 - - - - - - -
19/06:00pm 30.1 ESE 7 11 1009.2 - 0.8 - - - - - - -
19/05:30pm 29.9 SE 7 10 1009.0 - 0.8 - - - - - - -
19/05:00pm 28.8 ESE 7 11 1009.0 - 0.8 - - - - - - -
19/04:30pm 28.1 ESE 8 12 1008.8 - 0.8 - - - - - - -
19/04:00pm 28.3 ESE 9 14 1009.2 - 0.8 - - - - - - -
19/03:41pm 28.6 E 15 27 1009.8 - 0.8 - - - - - - -
19/03:30pm 29.8 ESE 10 15 1009.6 - 0.8 - - - - - - -
19/03:00pm 27.7 E 14 24 1009.7 - 0.6 - - - - - - -
19/02:39pm 29.8 E 19 29 1009.6 - 0.0 - - - - - - -
19/02:38pm 29.7 E 21 29 1009.6 - 0.0 - - - - - - -
19/02:30pm 34.5 ESE 10 17 1009.0 - 0.0 - - - - - - -
19/02:00pm 33.5 E 11 17 1009.5 - 0.0 - - - - - - -
19/01:30pm 33.8 ESE 12 17 1009.8 - 0.0 - - - - - - -
19/01:00pm 33.1 ESE 12 19 1010.3 - 0.0 - - - - - - -
19/12:30pm 33.0 ESE 14 21 1010.8 - 0.0 - - - - - - -
19/12:00pm 32.9 ESE 12 19 1011.2 - 0.0 - - - - - - -
19/11:30am 31.6 ESE 9 16 1011.6 - 0.0 - - - - - - -
19/11:00am 31.5 ESE 10 16 1012.3 - 0.0 - - - - - - -
19/10:30am 31.1 SE 9 13 1012.0 - 0.0 - - - - - - -
19/10:00am 30.1 SSE 7 11 1012.2 - 0.0 - - - - - - -
19/09:30am 29.4 SSE 7 11 1012.3 - 0.0 - - - - - - -
19/09:00am 28.6 SSE 7 10 1012.0 - 0.0 - - - - - - -
19/08:30am 27.7 S 6 8 1012.2 - 0.0 - - - - - - -
19/08:00am 26.7 SSW 5 6 1012.0 - 0.0 - - - - - - -
19/07:30am 25.6 SSW 4 5 1012.0 - 0.0 - - - - - - -
19/07:00am 24.6 SSW 2 4 1011.7 - 0.0 - - - - - - -
19/06:30am 24.4 S 1 3 1011.4 - 0.0 - - - - - - -
19/06:00am 24.6 S 3 4 1010.9 - 0.0 - - - - - - -
19/05:30am 24.4 S 3 5 1010.9 - 0.0 - - - - - - -
19/05:00am 24.4 CALM 0 0 1010.8 - 0.0 - - - - - - -
19/04:30am 25.0 S 1 3 1010.9 - 0.0 - - - - - - -
19/04:00am 25.1 SSE 3 5 1010.8 - 0.0 - - - - - - -
19/03:30am 25.2 SSE 4 5 1010.9 - 0.0 - - - - - - -
19/03:00am 25.4 SSE 4 5 1010.8 - 0.0 - - - - - - -
19/02:30am 25.6 SSE 4 5 1011.2 - 0.0 - - - - - - -
19/02:00am 25.8 S 4 6 1011.4 - 0.0 - - - - - - -
19/01:30am 26.0 SSE 5 7 1011.8 - 0.0 - - - - - - -
19/01:00am 26.3 SSE 6 7 1012.0 - 0.0 - - - - - - -
19/12:30am 26.6 SSE 6 8 1012.2 - 0.0 - - - - - - -
19/12:00am 27.2 SSE 7 10 1012.4 - 0.0 - - - - - - -
 
Date/Time
CST
Temp

°C
Wind Pressure Rain
since 9am
mm
Weather Cloud Vis
km
Sea
Height
m
Swell
Dir
 
Speed
knots
Gust
knots
hPa Trend Height
m
Period
s
Dir
18/11:30pm 28.1 ESE 9 14 1012.5 - 0.0 - - - - - - -
18/11:00pm 28.4 ESE 9 12 1012.5 - 0.0 - - - - - - -
18/10:30pm 28.2 ESE 7 11 1012.4 - 0.0 - - - - - - -
18/10:00pm 27.9 SE 6 8 1012.3 - 0.0 - - - - - - -
18/09:30pm 28.4 SSE 7 9 1012.3 - 0.0 - - - - - - -
18/09:00pm 28.9 SSE 7 11 1012.1 - 0.0 - - - - - - -
18/08:30pm 29.1 SSE 5 6 1011.7 - 0.0 - - - - - - -
18/08:00pm 29.2 SE 5 6 1011.2 - 0.0 - - - - - - -
18/07:30pm 29.2 ESE 4 6 1010.7 - 0.0 - - - - - - -
18/07:00pm 29.3 ESE 5 7 1010.3 - 0.0 - - - - - - -
18/06:30pm 29.4 ESE 8 11 1010.1 - 0.0 - - - - - - -
18/06:00pm 29.4 ESE 10 15 1009.8 - 0.0 - - - - - - -
18/05:30pm 30.3 ESE 10 15 1009.6 - 0.0 - - - - - - -
18/05:00pm 31.0 ESE 10 15 1009.3 - 0.0 - - - - - - -
18/04:30pm 30.8 E 8 14 1009.3 - 0.0 - - - - - - -
18/04:00pm 31.2 E 8 14 1009.2 - 0.0 - - - - - - -
18/03:30pm 31.7 ENE 8 13 1009.3 - 0.0 - - - - - - -
18/03:00pm 31.6 ENE 8 12 1009.4 - 0.0 - - - - - - -
18/02:30pm 32.6 E 7 10 1009.5 - 0.0 - - - - - - -
18/02:00pm 32.1 E 9 13 1009.9 - 0.0 - - - - - - -
18/01:30pm 32.2 E 9 14 1010.2 - 0.0 - - - - - - -
18/01:00pm 31.2 E 8 13 1010.5 - 0.0 - - - - - - -
18/12:30pm 31.1 E 9 14 1010.9 - 0.0 - - - - - - -
18/12:00pm 31.3 SE 12 16 1011.4 - 0.0 - - - - - - -
18/11:30am 30.9 ESE 10 15 1012.1 - 0.0 - - - - - - -
18/11:00am 30.8 SE 11 14 1012.3 - 0.0 - - - - - - -
18/10:30am 29.9 ESE 12 15 1012.7 - 0.0 - - - - - - -
18/10:00am 29.5 SE 9 14 1012.7 - 0.0 - - - - - - -
18/09:30am 29.2 SE 11 15 1012.9 - 0.0 - - - - - - -
18/09:00am 28.9 ESE 10 15 1012.9 - 1.4 - - - - - - -
18/08:30am 28.4 ESE 9 13 1012.9 - 1.4 - - - - - - -
18/08:00am 27.0 SSE 6 8 1012.8 - 1.4 - - - - - - -
18/07:30am 26.0 SSE 6 7 1012.6 - 1.4 - - - - - - -
18/07:00am 24.7 S 4 5 1012.1 - 1.4 - - - - - - -
18/06:30am 24.8 S 5 7 1011.6 - 1.4 - - - - - - -
18/06:00am 25.1 S 4 5 1011.1 - 1.2 - - - - - - -
18/05:30am 25.6 SSE 5 6 1010.9 - 1.2 - - - - - - -
18/05:00am 25.6 SSE 5 7 1010.8 - 1.2 - - - - - - -
18/04:30am 25.7 SE 6 7 1010.6 - 1.2 - - - - - - -
18/04:00am 25.7 SSE 7 9 1010.5 - 1.2 - - - - - - -
18/03:30am 25.5 SSE 6 7 1010.6 - 1.2 - - - - - - -
18/03:00am 25.6 SSE 5 7 1010.7 - 1.2 - - - - - - -
18/02:30am 25.5 SSE 5 6 1011.1 - 1.2 - - - - - - -
18/02:00am 25.7 S 5 7 1011.2 - 1.2 - - - - - - -
18/01:30am 25.8 S 5 6 1011.3 - 1.2 - - - - - - -
18/01:00am 26.0 S 4 6 1011.5 - 1.2 - - - - - - -
18/12:30am 26.3 SSE 4 5 1011.7 - 1.2 - - - - - - -
18/12:00am 26.7 S 4 5 1011.7 - 1.2 - - - - - - -
 
Date/Time
CST
Temp

°C
Wind Pressure Rain
since 9am
mm
Weather Cloud Vis
km
Sea
Height
m
Swell
Dir
 
Speed
knots
Gust
knots
hPa Trend Height
m
Period
s
Dir
17/11:30pm 27.2 S 4 6 1011.9 - 1.2 - - - - - - -
17/11:00pm 27.5 CALM 0 3 1011.9 - 1.2 - - - - - - -
17/10:30pm 27.7 SSE 4 6 1012.0 - 1.2 - - - - - - -
17/10:00pm 26.5 CALM 0 3 1012.1 - 1.2 - - - - - - -
17/09:30pm 26.6 CALM 0 0 1012.0 - 1.2 - - - - - - -
17/09:00pm 26.5 NNE 6 10 1011.6 - 1.2 - - - - - - -
17/08:30pm 26.6 NE 8 15 1011.5 - 1.2 - - - - - - -
17/08:00pm 27.2 ENE 7 12 1011.3 - 1.2 - - - - - - -
17/07:30pm 27.3 NE 6 9 1010.8 - 1.2 - - - - - - -
17/07:00pm 26.5 NE 7 11 1010.6 - 1.0 - - - - - - -
17/06:30pm 26.7 ESE 6 8 1010.3 - 0.8 - - - - - - -
17/06:00pm 26.3 ESE 13 19 1010.1 - 0.4 - - - - - - -
17/05:30pm 29.7 E 7 12 1009.7 - 0.0 - - - - - - -
17/05:00pm 30.4 ENE 8 13 1009.4 - 0.0 - - - - - - -
17/04:30pm 31.3 NE 7 12 1009.3 - 0.0 - - - - - - -
17/04:00pm 31.5 NNE 8 12 1009.1 - 0.0 - - - - - - -
17/03:30pm 31.9 NE 8 12 1009.2 - 0.0 - - - - - - -
17/03:00pm 31.9 NNE 8 13 1009.3 - 0.0 - - - - - - -
17/02:30pm 32.2 ENE 8 11 1009.6 - 0.0 - - - - - - -
17/02:00pm 32.1 ENE 9 14 1010.2 - 0.0 - - - - - - -
17/01:30pm 31.7 ENE 9 14 1010.6 - 0.0 - - - - - - -
17/01:00pm 31.5 E 8 14 1011.1 - 0.0 - - - - - - -
17/12:30pm 31.3 E 8 13 1011.6 - 0.0 - - - - - - -
17/12:00pm 30.4 E 7 11 1011.9 - 0.0 - - - - - - -
17/11:30am 30.3 E 7 13 1012.6 - 0.0 - - - - - - -
17/11:00am 29.6 E 9 13 1013.1 - 0.0 - - - - - - -
17/10:30am 29.7 ESE 8 12 1013.4 - 0.0 - - - - - - -
17/10:00am 29.7 ESE 9 12 1013.4 - 0.0 - - - - - - -
17/09:30am 29.7 ESE 8 11 1013.6 - 0.0 - - - - - - -
17/09:00am 28.8 ESE 10 16 1013.3 - 4.6 - - - - - - -

Other Formats:

Comma delimited format used in spreadsheet applications
http://www.bom.gov.au/fwo/IDD60701/IDD60701.94140.axf

JavaScript Object Notation format (JSON) in row-major order
http://www.bom.gov.au/fwo/IDD60701/IDD60701.94140.json